Milwaukee, WI (53201)

2:02 AM CDT on July 29, 2016 (GMT -0500)
Milwaukee Harbor | | Change Station

Elev 591 ft 43.02 °N, 87.91 °W | Updated 21 seconds ago

Overcast
Overcast
69.8 °F
Feels Like 69.8 °F
N
15.0
Wind Variable Wind from NNE
Gusts 17.4 mph

Today
High -- | Low -- °F
--% Chance of Precip.
Yesterday
High -- | Low -- °F
Precip. -- in
Pressure 29.95 in
Visibility 10.0 miles
Clouds Mostly Cloudy 1200 ft
Overcast 8500 ft
Dew Point 65 °F
Humidity 84%
Rainfall 0.00 in
Snow Depth Not available.
5:39 AM 8:15 PM
Waning Crescent, 24% visible
METAR KMKE 290652Z 01014G22KT 10SM BKN012 OVC085 21/18 A2996 RMK AO2 SLP141 T02060178
Pressure 29.95 in
Visibility 10.0 miles
Clouds Mostly Cloudy 1200 ft
Overcast 8500 ft
Dew Point 65 °F
Humidity 84%
Rainfall 0.00 in
Snow Depth Not available.
5:39 AM 8:15 PM
Waning Crescent, 24% visible
METAR KMKE 290652Z 01014G22KT 10SM BKN012 OVC085 21/18 A2996 RMK AO2 SLP141 T02060178

10-Day Weather Forecast

Almanac

Astronomy

Jul. 29, 2016 Rise Set
Actual Time
Civil Twilight
Nautical Twilight
Astronomical Twilight
Moon
Length of Visible Light
Length of Day
Tomorrow will be .
, % of the Moon is Illuminated

Today's Extremes

State Highs State Lows

Community

WunderPhotos

Upload Photos

1,928,302 photos uploaded!

WunderBlog® & News

Nearby

Air Quality

  Air Quality AQ Index Pollutant
Not available.

Snow Depth

Station Depth Elevation

Earthquake Activity

City Distance Mag. Time & Date
Minimum magnitude displayed is 2.5.

Coastal Water Temperatures

Place Temperature

Stations

Nearby Weather Stations

Station Location Temp. Windchill Dew Point Humidity Wind Precip. Elev Updated Type
                   

Watches & Warnings

There are currently no watches in effect.